sensor_id;sensor_type;location;lat;lon;timestamp;pressure;altitude;pressure_sealevel;temperature;humidity
79453;BME280;68899;52.116;5.404;2023-12-07T00:02:24;102033.19;;;-0.25;82.78
79453;BME280;68899;52.116;5.404;2023-12-07T00:04:50;102029.72;;;-0.28;83.08
79453;BME280;68899;52.116;5.404;2023-12-07T00:07:17;102028.84;;;-0.28;82.95
79453;BME280;68899;52.116;5.404;2023-12-07T00:09:43;102024.53;;;-0.28;82.59
79453;BME280;68899;52.116;5.404;2023-12-07T00:12:10;102020.25;;;-0.25;82.86
79453;BME280;68899;52.116;5.404;2023-12-07T00:14:36;102021.97;;;-0.24;82.36
79453;BME280;68899;52.116;5.404;2023-12-07T00:17:03;102029.72;;;-0.28;82.37
79453;BME280;68899;52.116;5.404;2023-12-07T00:19:29;102029.75;;;-0.26;82.99
79453;BME280;68899;52.116;5.404;2023-12-07T00:21:56;102037.47;;;-0.29;82.67
79453;BME280;68899;52.116;5.404;2023-12-07T00:24:23;102023.69;;;-0.31;82.53
79453;BME280;68899;52.116;5.404;2023-12-07T00:26:49;102022.81;;;-0.33;82.47
79453;BME280;68899;52.116;5.404;2023-12-07T00:29:16;102016.78;;;-0.37;83.02
79453;BME280;68899;52.116;5.404;2023-12-07T00:31:42;102020.22;;;-0.38;82.98
79453;BME280;68899;52.116;5.404;2023-12-07T00:34:10;102018.50;;;-0.39;83.34
79453;BME280;68899;52.116;5.404;2023-12-07T00:36:36;102019.34;;;-0.38;82.42
79453;BME280;68899;52.116;5.404;2023-12-07T00:39:03;102009.00;;;-0.37;82.90
79453;BME280;68899;52.116;5.404;2023-12-07T00:41:30;102015.03;;;-0.36;82.79
79453;BME280;68899;52.116;5.404;2023-12-07T00:43:57;102011.59;;;-0.38;82.67
79453;BME280;68899;52.116;5.404;2023-12-07T00:46:23;102017.63;;;-0.39;82.64
79453;BME280;68899;52.116;5.404;2023-12-07T00:48:50;102015.06;;;-0.41;83.21
79453;BME280;68899;52.116;5.404;2023-12-07T00:51:16;102015.91;;;-0.42;82.77
79453;BME280;68899;52.116;5.404;2023-12-07T00:53:43;102010.72;;;-0.45;83.18
79453;BME280;68899;52.116;5.404;2023-12-07T00:56:10;102011.56;;;-0.47;82.91
79453;BME280;68899;52.116;5.404;2023-12-07T00:58:36;102015.88;;;-0.46;83.02
79453;BME280;68899;52.116;5.404;2023-12-07T01:01:04;102015.88;;;-0.45;82.73
79453;BME280;68899;52.116;5.404;2023-12-07T01:03:31;102009.00;;;-0.44;82.59
79453;BME280;68899;52.116;5.404;2023-12-07T01:05:58;102014.16;;;-0.46;83.03
79453;BME280;68899;52.116;5.404;2023-12-07T01:08:24;102007.28;;;-0.47;82.91
79453;BME280;68899;52.116;5.404;2023-12-07T01:10:51;102008.13;;;-0.49;82.91
79453;BME280;68899;52.116;5.404;2023-12-07T01:13:17;102010.72;;;-0.51;82.70
79453;BME280;68899;52.116;5.404;2023-12-07T01:15:44;102011.59;;;-0.50;82.56
79453;BME280;68899;52.116;5.404;2023-12-07T01:18:10;102015.03;;;-0.48;83.25
79453;BME280;68899;52.116;5.404;2023-12-07T01:20:37;102021.03;;;-0.54;83.27
79453;BME280;68899;52.116;5.404;2023-12-07T01:23:03;102026.19;;;-0.55;83.11
79453;BME280;68899;52.116;5.404;2023-12-07T01:25:30;102026.19;;;-0.60;82.94
79453;BME280;68899;52.116;5.404;2023-12-07T01:27:57;102021.00;;;-0.66;82.28
79453;BME280;68899;52.116;5.404;2023-12-07T01:30:23;102022.72;;;-0.64;82.85
79453;BME280;68899;52.116;5.404;2023-12-07T01:32:50;102022.72;;;-0.62;83.81
79453;BME280;68899;52.116;5.404;2023-12-07T01:35:16;102027.03;;;-0.61;83.42
79453;BME280;68899;52.116;5.404;2023-12-07T01:37:43;102026.19;;;-0.60;82.78
79453;BME280;68899;52.116;5.404;2023-12-07T01:40:09;102025.34;;;-0.58;83.13
79453;BME280;68899;52.116;5.404;2023-12-07T01:42:37;102030.50;;;-0.59;83.47
79453;BME280;68899;52.116;5.404;2023-12-07T01:45:05;102032.22;;;-0.58;83.45
79453;BME280;68899;52.116;5.404;2023-12-07T01:47:33;102033.94;;;-0.59;83.10
79453;BME280;68899;52.116;5.404;2023-12-07T01:50:01;102035.69;;;-0.59;83.28
79453;BME280;68899;52.116;5.404;2023-12-07T01:52:31;102039.13;;;-0.59;83.11
79453;BME280;68899;52.116;5.404;2023-12-07T01:54:57;102033.94;;;-0.59;83.27
79453;BME280;68899;52.116;5.404;2023-12-07T01:57:24;102036.53;;;-0.60;83.60
79453;BME280;68899;52.116;5.404;2023-12-07T01:59:51;102037.38;;;-0.61;82.81
79453;BME280;68899;52.116;5.404;2023-12-07T02:02:18;102041.69;;;-0.65;83.35
79453;BME280;68899;52.116;5.404;2023-12-07T02:04:44;102031.34;;;-0.65;83.32
79453;BME280;68899;52.116;5.404;2023-12-07T02:07:11;102036.50;;;-0.62;83.29
79453;BME280;68899;52.116;5.404;2023-12-07T02:09:38;102035.69;;;-0.61;82.78
79453;BME280;68899;52.116;5.404;2023-12-07T02:12:05;102026.16;;;-0.65;82.56
79453;BME280;68899;52.116;5.404;2023-12-07T02:14:31;102030.47;;;-0.67;82.53
79453;BME280;68899;52.116;5.404;2023-12-07T02:17:26;102027.00;;;-0.70;83.22
79453;BME280;68899;52.116;5.404;2023-12-07T02:22:52;102032.16;;;-0.78;82.99
79453;BME280;68899;52.116;5.404;2023-12-07T02:25:23;102033.00;;;-0.80;83.23
79453;BME280;68899;52.116;5.404;2023-12-07T02:27:50;102031.28;;;-0.83;83.54
79453;BME280;68899;52.116;5.404;2023-12-07T02:30:17;102029.53;;;-0.82;83.11
79453;BME280;68899;52.116;5.404;2023-12-07T02:32:44;102033.00;;;-0.82;82.96
79453;BME280;68899;52.116;5.404;2023-12-07T02:35:12;102033.00;;;-0.82;83.60
79453;BME280;68899;52.116;5.404;2023-12-07T02:37:44;102029.53;;;-0.81;83.62
79453;BME280;68899;52.116;5.404;2023-12-07T02:40:12;102036.44;;;-0.80;83.39
79453;BME280;68899;52.116;5.404;2023-12-07T02:42:42;102033.00;;;-0.83;83.35
79453;BME280;68899;52.116;5.404;2023-12-07T02:45:10;102035.56;;;-0.83;83.72
79453;BME280;68899;52.116;5.404;2023-12-07T02:47:37;102038.16;;;-0.82;83.50
79453;BME280;68899;52.116;5.404;2023-12-07T02:50:05;102029.53;;;-0.82;83.11
79453;BME280;68899;52.116;5.404;2023-12-07T02:52:33;102019.22;;;-0.82;83.84
79453;BME280;68899;52.116;5.404;2023-12-07T02:55:00;102014.91;;;-0.80;83.69
79453;BME280;68899;52.116;5.404;2023-12-07T02:57:26;102017.50;;;-0.79;83.65
79453;BME280;68899;52.116;5.404;2023-12-07T02:59:53;102027.00;;;-0.78;83.81
79453;BME280;68899;52.116;5.404;2023-12-07T03:02:19;102024.41;;;-0.78;83.61
79453;BME280;68899;52.116;5.404;2023-12-07T03:04:46;102024.41;;;-0.75;84.07
79453;BME280;68899;52.116;5.404;2023-12-07T03:07:13;102031.31;;;-0.77;84.05
79453;BME280;68899;52.116;5.404;2023-12-07T03:09:39;102022.66;;;-0.79;83.73
79453;BME280;68899;52.116;5.404;2023-12-07T03:12:06;102022.66;;;-0.79;83.07
79453;BME280;68899;52.116;5.404;2023-12-07T03:14:33;102027.81;;;-0.79;83.73
79453;BME280;68899;52.116;5.404;2023-12-07T03:16:59;102021.78;;;-0.82;83.50
79453;BME280;68899;52.116;5.404;2023-12-07T03:19:26;102026.09;;;-0.83;83.69
79453;BME280;68899;52.116;5.404;2023-12-07T03:21:53;102030.41;;;-0.80;83.88
79453;BME280;68899;52.116;5.404;2023-12-07T03:24:19;102033.84;;;-0.81;83.53
79453;BME280;68899;52.116;5.404;2023-12-07T03:26:46;102038.16;;;-0.82;83.65
79453;BME280;68899;52.116;5.404;2023-12-07T03:29:12;102044.19;;;-0.84;83.40
79453;BME280;68899;52.116;5.404;2023-12-07T03:31:39;102037.28;;;-0.86;83.44
79453;BME280;68899;52.116;5.404;2023-12-07T03:34:05;102040.75;;;-0.87;83.32
79453;BME280;68899;52.116;5.404;2023-12-07T03:36:32;102031.28;;;-0.84;83.39
79453;BME280;68899;52.116;5.404;2023-12-07T03:39:00;102037.28;;;-0.86;83.88
79453;BME280;68899;52.116;5.404;2023-12-07T03:41:27;102044.16;;;-0.88;83.99
79453;BME280;68899;52.116;5.404;2023-12-07T03:43:53;102039.84;;;-0.92;83.37
79453;BME280;68899;52.116;5.404;2023-12-07T03:46:20;102047.59;;;-0.92;83.61
79453;BME280;68899;52.116;5.404;2023-12-07T03:48:46;102044.13;;;-0.94;83.68
79453;BME280;68899;52.116;5.404;2023-12-07T03:51:13;102041.56;;;-0.94;83.89
79453;BME280;68899;52.116;5.404;2023-12-07T03:53:42;102041.53;;;-0.98;83.33
79453;BME280;68899;52.116;5.404;2023-12-07T03:56:09;102051.00;;;-0.99;83.65
79453;BME280;68899;52.116;5.404;2023-12-07T03:58:36;102045.81;;;-1.00;83.23
79453;BME280;68899;52.116;5.404;2023-12-07T04:01:03;102044.09;;;-1.01;83.56
79453;BME280;68899;52.116;5.404;2023-12-07T04:03:30;102048.41;;;-1.00;83.80
79453;BME280;68899;52.116;5.404;2023-12-07T04:05:56;102050.13;;;-1.01;83.74
79453;BME280;68899;52.116;5.404;2023-12-07T04:08:23;102055.28;;;-1.01;83.51
79453;BME280;68899;52.116;5.404;2023-12-07T04:10:50;102038.94;;;-1.03;83.65
79453;BME280;68899;52.116;5.404;2023-12-07T04:13:16;102051.84;;;-1.03;83.38
79453;BME280;68899;52.116;5.404;2023-12-07T04:15:43;102044.97;;;-1.04;83.69
79453;BME280;68899;52.116;5.404;2023-12-07T04:18:09;102043.22;;;-1.02;83.22
79453;BME280;68899;52.116;5.404;2023-12-07T04:20:36;102042.38;;;-0.98;83.89
79453;BME280;68899;52.116;5.404;2023-12-07T04:23:03;102046.72;;;-0.95;83.75
79453;BME280;68899;52.116;5.404;2023-12-07T04:25:29;102045.88;;;-0.93;83.64
79453;BME280;68899;52.116;5.404;2023-12-07T04:27:56;102047.59;;;-0.95;84.11
79453;BME280;68899;52.116;5.404;2023-12-07T04:30:22;102049.31;;;-0.95;83.93
79453;BME280;68899;52.116;5.404;2023-12-07T04:32:49;102047.59;;;-0.95;84.14
79453;BME280;68899;52.116;5.404;2023-12-07T04:35:15;102042.41;;;-0.93;83.83
79453;BME280;68899;52.116;5.404;2023-12-07T04:37:42;102045.88;;;-0.91;84.22
79453;BME280;68899;52.116;5.404;2023-12-07T04:40:09;102039.84;;;-0.90;84.40
79453;BME280;68899;52.116;5.404;2023-12-07T04:42:36;102044.16;;;-0.91;84.37
79453;BME280;68899;52.116;5.404;2023-12-07T04:45:03;102043.28;;;-0.91;84.31
79453;BME280;68899;52.116;5.404;2023-12-07T04:47:30;102040.69;;;-0.91;84.03
79453;BME280;68899;52.116;5.404;2023-12-07T04:49:58;102047.59;;;-0.92;84.51
79453;BME280;68899;52.116;5.404;2023-12-07T04:52:24;102045.00;;;-0.95;84.20
79453;BME280;68899;52.116;5.404;2023-12-07T04:54:51;102044.13;;;-0.95;84.42
79453;BME280;68899;52.116;5.404;2023-12-07T04:57:17;102051.88;;;-0.94;84.48
79453;BME280;68899;52.116;5.404;2023-12-07T04:59:44;102042.41;;;-0.95;83.69
79453;BME280;68899;52.116;5.404;2023-12-07T05:02:14;102036.38;;;-0.95;83.88
79453;BME280;68899;52.116;5.404;2023-12-07T05:04:41;102036.41;;;-0.92;84.12
79453;BME280;68899;52.116;5.404;2023-12-07T05:07:08;102041.56;;;-0.95;83.85
79453;BME280;68899;52.116;5.404;2023-12-07T05:09:34;102032.03;;;-1.01;83.97
79453;BME280;68899;52.116;5.404;2023-12-07T05:12:01;102038.06;;;-1.02;83.71
79453;BME280;68899;52.116;5.404;2023-12-07T05:14:28;102032.91;;;-1.00;83.92
79453;BME280;68899;52.116;5.404;2023-12-07T05:16:54;102026.03;;;-1.01;83.84
79453;BME280;68899;52.116;5.404;2023-12-07T05:19:23;102022.56;;;-1.00;84.32
79453;BME280;68899;52.116;5.404;2023-12-07T05:21:50;102024.28;;;-0.99;84.43
79453;BME280;68899;52.116;5.404;2023-12-07T05:24:17;102034.63;;;-0.99;84.21
79453;BME280;68899;52.116;5.404;2023-12-07T05:26:44;102035.50;;;-1.02;84.46
79453;BME280;68899;52.116;5.404;2023-12-07T05:29:14;102029.47;;;-1.04;84.90
79453;BME280;68899;52.116;5.404;2023-12-07T05:31:41;102015.66;;;-1.06;84.34
79453;BME280;68899;52.116;5.404;2023-12-07T05:34:07;102023.41;;;-1.04;84.76
79453;BME280;68899;52.116;5.404;2023-12-07T05:36:34;102024.28;;;-1.04;84.59
79453;BME280;68899;52.116;5.404;2023-12-07T05:39:01;102026.00;;;-1.03;85.25
79453;BME280;68899;52.116;5.404;2023-12-07T05:41:27;102026.03;;;-1.00;85.00
79453;BME280;68899;52.116;5.404;2023-12-07T05:43:54;102015.69;;;-1.00;85.04
79453;BME280;68899;52.116;5.404;2023-12-07T05:46:21;102034.63;;;-0.98;85.07
79453;BME280;68899;52.116;5.404;2023-12-07T05:48:47;102020.84;;;-1.00;85.45
79453;BME280;68899;52.116;5.404;2023-12-07T05:51:16;102019.13;;;-0.99;85.29
79453;BME280;68899;52.116;5.404;2023-12-07T05:53:43;102016.56;;;-0.98;85.93
79453;BME280;68899;52.116;5.404;2023-12-07T05:56:10;102016.56;;;-0.99;85.54
79453;BME280;68899;52.116;5.404;2023-12-07T05:58:38;102020.00;;;-0.99;85.97
79453;BME280;68899;52.116;5.404;2023-12-07T06:01:05;102020.00;;;-0.96;86.15
79453;BME280;68899;52.116;5.404;2023-12-07T06:03:32;102012.28;;;-0.94;86.43
79453;BME280;68899;52.116;5.404;2023-12-07T06:05:58;102014.00;;;-0.92;86.22
79453;BME280;68899;52.116;5.404;2023-12-07T06:08:25;102026.06;;;-0.88;86.49
79453;BME280;68899;52.116;5.404;2023-12-07T06:10:51;102028.69;;;-0.86;86.52
79453;BME280;68899;52.116;5.404;2023-12-07T06:13:18;102029.53;;;-0.84;86.64
79453;BME280;68899;52.116;5.404;2023-12-07T06:15:45;102033.84;;;-0.83;86.78
79453;BME280;68899;52.116;5.404;2023-12-07T06:18:11;102042.47;;;-0.82;86.99
79453;BME280;68899;52.116;5.404;2023-12-07T06:20:38;102037.28;;;-0.82;86.47
79453;BME280;68899;52.116;5.404;2023-12-07T06:23:04;102036.44;;;-0.83;86.45
79453;BME280;68899;52.116;5.404;2023-12-07T06:25:33;102041.59;;;-0.83;87.57
79453;BME280;68899;52.116;5.404;2023-12-07T06:27:59;102041.59;;;-0.83;87.51
79453;BME280;68899;52.116;5.404;2023-12-07T06:30:26;102036.44;;;-0.86;88.03
79453;BME280;68899;52.116;5.404;2023-12-07T06:32:52;102041.56;;;-0.88;87.69
79453;BME280;68899;52.116;5.404;2023-12-07T06:35:19;102048.44;;;-0.88;87.73
79453;BME280;68899;52.116;5.404;2023-12-07T06:37:46;102047.63;;;-0.84;87.86
79453;BME280;68899;52.116;5.404;2023-12-07T06:40:13;102051.06;;;-0.80;88.17
79453;BME280;68899;52.116;5.404;2023-12-07T06:42:39;102048.50;;;-0.82;88.14
79453;BME280;68899;52.116;5.404;2023-12-07T06:45:06;102051.94;;;-0.83;88.46
79453;BME280;68899;52.116;5.404;2023-12-07T06:47:37;102042.47;;;-0.82;88.91
79453;BME280;68899;52.116;5.404;2023-12-07T06:50:05;102045.03;;;-0.82;88.47
79453;BME280;68899;52.116;5.404;2023-12-07T06:52:37;102055.38;;;-0.86;88.71
79453;BME280;68899;52.116;5.404;2023-12-07T06:55:04;102051.03;;;-0.88;89.03
79453;BME280;68899;52.116;5.404;2023-12-07T06:57:31;102059.66;;;-0.88;89.49
79453;BME280;68899;52.116;5.404;2023-12-07T06:59:57;102053.66;;;-0.87;89.68
79453;BME280;68899;52.116;5.404;2023-12-07T07:02:24;102043.28;;;-0.88;89.61
79453;BME280;68899;52.116;5.404;2023-12-07T07:04:50;102045.00;;;-0.90;89.38
79453;BME280;68899;52.116;5.404;2023-12-07T07:07:18;102045.00;;;-0.89;89.33
79453;BME280;68899;52.116;5.404;2023-12-07T07:09:44;102045.03;;;-0.86;89.82
79453;BME280;68899;52.116;5.404;2023-12-07T07:12:11;102036.44;;;-0.83;90.09
79453;BME280;68899;52.116;5.404;2023-12-07T07:14:38;102038.16;;;-0.82;89.93
79453;BME280;68899;52.116;5.404;2023-12-07T07:17:05;102047.63;;;-0.86;89.50
79453;BME280;68899;52.116;5.404;2023-12-07T07:19:31;102047.63;;;-0.84;89.47
79453;BME280;68899;52.116;5.404;2023-12-07T07:21:58;102045.03;;;-0.82;89.52
79453;BME280;68899;52.116;5.404;2023-12-07T07:24:24;102046.75;;;-0.84;90.26
79453;BME280;68899;52.116;5.404;2023-12-07T07:26:51;102044.19;;;-0.83;89.93
79453;BME280;68899;52.116;5.404;2023-12-07T07:29:17;102049.34;;;-0.83;89.97
79453;BME280;68899;52.116;5.404;2023-12-07T07:31:44;102046.78;;;-0.80;90.00
79453;BME280;68899;52.116;5.404;2023-12-07T07:34:10;102054.53;;;-0.78;89.89
79453;BME280;68899;52.116;5.404;2023-12-07T07:36:37;102058.00;;;-0.78;89.89
79453;BME280;68899;52.116;5.404;2023-12-07T07:39:03;102053.66;;;-0.83;89.84
79453;BME280;68899;52.116;5.404;2023-12-07T07:41:35;102056.25;;;-0.82;90.38
79453;BME280;68899;52.116;5.404;2023-12-07T07:44:02;102057.97;;;-0.79;90.33
79453;BME280;68899;52.116;5.404;2023-12-07T07:46:30;102052.84;;;-0.78;90.08
79453;BME280;68899;52.116;5.404;2023-12-07T07:48:57;102050.25;;;-0.72;90.16
79453;BME280;68899;52.116;5.404;2023-12-07T07:51:23;102056.31;;;-0.68;90.42
79453;BME280;68899;52.116;5.404;2023-12-07T07:53:50;102057.19;;;-0.69;89.94
79453;BME280;68899;52.116;5.404;2023-12-07T07:56:16;102061.44;;;-0.71;90.20
79453;BME280;68899;52.116;5.404;2023-12-07T07:58:43;102061.44;;;-0.77;90.41
79453;BME280;68899;52.116;5.404;2023-12-07T08:01:09;102058.88;;;-0.77;90.03
79453;BME280;68899;52.116;5.404;2023-12-07T08:03:38;102055.38;;;-0.79;90.20
79453;BME280;68899;52.116;5.404;2023-12-07T08:06:06;102058.81;;;-0.82;89.92
79453;BME280;68899;52.116;5.404;2023-12-07T08:08:33;102057.09;;;-0.83;90.32
79453;BME280;68899;52.116;5.404;2023-12-07T08:10:59;102061.41;;;-0.87;90.18
79453;BME280;68899;52.116;5.404;2023-12-07T08:13:27;102061.38;;;-0.91;89.84
79453;BME280;68899;52.116;5.404;2023-12-07T08:15:54;102054.47;;;-0.92;90.73
79453;BME280;68899;52.116;5.404;2023-12-07T08:18:24;102054.47;;;-0.91;90.11
79453;BME280;68899;52.116;5.404;2023-12-07T08:20:50;102054.47;;;-0.91;90.13
79453;BME280;68899;52.116;5.404;2023-12-07T08:23:17;102065.66;;;-0.89;90.62
79453;BME280;68899;52.116;5.404;2023-12-07T08:25:43;102066.56;;;-0.85;90.76
79453;BME280;68899;52.116;5.404;2023-12-07T08:28:10;102059.69;;;-0.84;90.98
79453;BME280;68899;52.116;5.404;2023-12-07T08:30:36;102062.25;;;-0.86;90.54
79453;BME280;68899;52.116;5.404;2023-12-07T08:33:03;102059.69;;;-0.83;90.56
79453;BME280;68899;52.116;5.404;2023-12-07T08:35:30;102055.38;;;-0.82;90.93
79453;BME280;68899;52.116;5.404;2023-12-07T08:37:56;102057.09;;;-0.80;90.60
79453;BME280;68899;52.116;5.404;2023-12-07T08:40:22;102052.81;;;-0.79;90.48
79453;BME280;68899;52.116;5.404;2023-12-07T08:42:49;102057.09;;;-0.78;90.52
79453;BME280;68899;52.116;5.404;2023-12-07T08:45:18;102061.44;;;-0.77;90.47
79453;BME280;68899;52.116;5.404;2023-12-07T08:47:45;102058.00;;;-0.73;90.90
79453;BME280;68899;52.116;5.404;2023-12-07T08:50:12;102055.41;;;-0.75;90.72
79453;BME280;68899;52.116;5.404;2023-12-07T08:52:38;102051.13;;;-0.73;90.96
79453;BME280;68899;52.116;5.404;2023-12-07T08:55:15;102053.69;;;-0.73;90.88
79453;BME280;68899;52.116;5.404;2023-12-07T08:57:42;102050.25;;;-0.75;90.67
79453;BME280;68899;52.116;5.404;2023-12-07T09:00:09;102053.69;;;-0.70;91.39
79453;BME280;68899;52.116;5.404;2023-12-07T09:02:39;102051.13;;;-0.70;90.67
79453;BME280;68899;52.116;5.404;2023-12-07T09:05:13;102038.22;;;-0.68;91.46
79453;BME280;68899;52.116;5.404;2023-12-07T09:07:39;102047.72;;;-0.66;91.11
79453;BME280;68899;52.116;5.404;2023-12-07T09:10:07;102046.84;;;-0.65;91.16
79453;BME280;68899;52.116;5.404;2023-12-07T09:12:35;102034.78;;;-0.64;91.49
79453;BME280;68899;52.116;5.404;2023-12-07T09:15:06;102032.19;;;-0.63;91.62
79453;BME280;68899;52.116;5.404;2023-12-07T09:17:40;102033.09;;;-0.59;91.34
79453;BME280;68899;52.116;5.404;2023-12-07T09:20:08;102027.06;;;-0.55;91.18
79453;BME280;68899;52.116;5.404;2023-12-07T09:22:44;102026.19;;;-0.54;91.30
79453;BME280;68899;52.116;5.404;2023-12-07T09:25:11;102030.50;;;-0.56;91.03
79453;BME280;68899;52.116;5.404;2023-12-07T09:27:39;102026.19;;;-0.52;91.69
79453;BME280;68899;52.116;5.404;2023-12-07T09:30:07;102032.25;;;-0.49;90.91
79453;BME280;68899;52.116;5.404;2023-12-07T09:32:39;102033.97;;;-0.51;91.37
79453;BME280;68899;52.116;5.404;2023-12-07T09:35:07;102033.97;;;-0.49;91.47
79453;BME280;68899;52.116;5.404;2023-12-07T09:37:34;102039.16;;;-0.46;91.65
79453;BME280;68899;52.116;5.404;2023-12-07T09:40:01;102033.97;;;-0.45;91.80
79453;BME280;68899;52.116;5.404;2023-12-07T09:42:28;102038.28;;;-0.44;91.83
79453;BME280;68899;52.116;5.404;2023-12-07T09:45:02;102044.34;;;-0.43;91.41
79453;BME280;68899;52.116;5.404;2023-12-07T09:47:30;102044.31;;;-0.46;91.64
79453;BME280;68899;52.116;5.404;2023-12-07T09:50:06;102034.84;;;-0.46;91.18
79453;BME280;68899;52.116;5.404;2023-12-07T09:52:35;102035.69;;;-0.45;91.00
79453;BME280;68899;52.116;5.404;2023-12-07T09:55:02;102042.59;;;-0.47;91.27
79453;BME280;68899;52.116;5.404;2023-12-07T09:57:30;102041.72;;;-0.45;90.94
79453;BME280;68899;52.116;5.404;2023-12-07T09:59:57;102033.97;;;-0.45;91.25
79453;BME280;68899;52.116;5.404;2023-12-07T10:02:24;102027.09;;;-0.44;91.83
79453;BME280;68899;52.116;5.404;2023-12-07T10:05:17;102026.22;;;-0.45;91.50
79453;BME280;68899;52.116;5.404;2023-12-07T10:07:47;102024.50;;;-0.47;91.31
79453;BME280;68899;52.116;5.404;2023-12-07T10:10:18;102013.31;;;-0.49;91.58
79453;BME280;68899;52.116;5.404;2023-12-07T10:12:46;102012.44;;;-0.44;91.66
79453;BME280;68899;52.116;5.404;2023-12-07T10:15:14;102005.56;;;-0.40;91.54
79453;BME280;68899;52.116;5.404;2023-12-07T10:20:21;101992.66;;;-0.39;91.58
79453;BME280;68899;52.116;5.404;2023-12-07T10:25:35;101981.47;;;-0.33;92.03
79453;BME280;68899;52.116;5.404;2023-12-07T10:28:02;101977.16;;;-0.33;91.19
79453;BME280;68899;52.116;5.404;2023-12-07T10:30:34;101973.72;;;-0.35;91.51
79453;BME280;68899;52.116;5.404;2023-12-07T10:33:04;101975.41;;;-0.35;91.71
79453;BME280;68899;52.116;5.404;2023-12-07T10:35:31;101971.94;;;-0.36;91.38
79453;BME280;68899;52.116;5.404;2023-12-07T10:37:58;101972.84;;;-0.32;91.50
79453;BME280;68899;52.116;5.404;2023-12-07T10:40:24;101978.88;;;-0.32;91.28
79453;BME280;68899;52.116;5.404;2023-12-07T10:42:57;101974.56;;;-0.33;92.04
79453;BME280;68899;52.116;5.404;2023-12-07T10:45:24;101971.13;;;-0.33;92.01
79453;BME280;68899;52.116;5.404;2023-12-07T10:47:53;101966.81;;;-0.34;91.58
79453;BME280;68899;52.116;5.404;2023-12-07T10:50:23;101954.72;;;-0.28;92.29
79453;BME280;68899;52.116;5.404;2023-12-07T10:52:52;101951.31;;;-0.23;91.85
79453;BME280;68899;52.116;5.404;2023-12-07T10:55:28;101950.44;;;-0.24;91.65
79453;BME280;68899;52.116;5.404;2023-12-07T10:57:55;101950.44;;;-0.22;91.50
79453;BME280;68899;52.116;5.404;2023-12-07T11:00:22;101940.09;;;-0.21;91.92
79453;BME280;68899;52.116;5.404;2023-12-07T11:03:07;101946.97;;;-0.18;92.21
79453;BME280;68899;52.116;5.404;2023-12-07T11:05:35;101946.97;;;-0.20;92.03
79453;BME280;68899;52.116;5.404;2023-12-07T11:08:06;101946.13;;;-0.20;92.33
79453;BME280;68899;52.116;5.404;2023-12-07T11:10:48;101938.34;;;-0.19;92.38
79453;BME280;68899;52.116;5.404;2023-12-07T11:13:28;101940.97;;;-0.17;92.29
79453;BME280;68899;52.116;5.404;2023-12-07T11:15:57;101935.78;;;-0.14;92.38
79453;BME280;68899;52.116;5.404;2023-12-07T11:18:27;101933.19;;;-0.11;91.46
79453;BME280;68899;52.116;5.404;2023-12-07T11:20:55;101923.69;;;-0.09;92.37
79453;BME280;68899;52.116;5.404;2023-12-07T11:23:22;101922.00;;;-0.07;92.22
79453;BME280;68899;52.116;5.404;2023-12-07T11:25:51;101919.41;;;-0.06;92.16
79453;BME280;68899;52.116;5.404;2023-12-07T11:28:34;101907.34;;;-0.05;91.65
79453;BME280;68899;52.116;5.404;2023-12-07T11:31:01;101903.00;;;-0.03;91.87
79453;BME280;68899;52.116;5.404;2023-12-07T11:33:31;101902.13;;;-0.01;91.69
79453;BME280;68899;52.116;5.404;2023-12-07T11:36:11;101894.38;;;0.07;92.50
79453;BME280;68899;52.116;5.404;2023-12-07T11:41:35;101879.72;;;0.05;91.99
79453;BME280;68899;52.116;5.404;2023-12-07T11:44:02;101876.28;;;0.06;92.25
79453;BME280;68899;52.116;5.404;2023-12-07T11:46:29;101885.75;;;0.07;92.47
79453;BME280;68899;52.116;5.404;2023-12-07T11:48:56;101874.53;;;0.08;92.05
79453;BME280;68899;52.116;5.404;2023-12-07T11:51:24;101877.16;;;0.09;91.99
79453;BME280;68899;52.116;5.404;2023-12-07T11:53:50;101876.25;;;0.12;91.92
79453;BME280;68899;52.116;5.404;2023-12-07T11:56:17;101875.41;;;0.13;91.46
79453;BME280;68899;52.116;5.404;2023-12-07T11:58:47;101874.56;;;0.09;91.80
79453;BME280;68899;52.116;5.404;2023-12-07T12:01:16;101878.00;;;0.07;92.56
79453;BME280;68899;52.116;5.404;2023-12-07T12:03:43;101877.13;;;0.11;91.91
79453;BME280;68899;52.116;5.404;2023-12-07T12:06:10;101865.03;;;0.14;92.47
79453;BME280;68899;52.116;5.404;2023-12-07T12:08:40;101859.84;;;0.16;92.00
79453;BME280;68899;52.116;5.404;2023-12-07T12:11:07;101854.69;;;0.16;92.19
79453;BME280;68899;52.116;5.404;2023-12-07T12:13:35;101852.09;;;0.17;92.15
79453;BME280;68899;52.116;5.404;2023-12-07T12:16:03;101847.78;;;0.19;92.40
79453;BME280;68899;52.116;5.404;2023-12-07T12:18:33;101841.75;;;0.22;92.78
79453;BME280;68899;52.116;5.404;2023-12-07T12:21:00;101833.09;;;0.26;92.27
79453;BME280;68899;52.116;5.404;2023-12-07T12:23:27;101844.31;;;0.28;92.19
79453;BME280;68899;52.116;5.404;2023-12-07T12:25:55;101827.06;;;0.27;92.23
79453;BME280;68899;52.116;5.404;2023-12-07T12:28:21;101828.75;;;0.31;92.21
79453;BME280;68899;52.116;5.404;2023-12-07T12:30:50;101820.97;;;0.34;92.62
79453;BME280;68899;52.116;5.404;2023-12-07T12:33:18;101818.38;;;0.34;91.88
79453;BME280;68899;52.116;5.404;2023-12-07T12:35:44;101809.78;;;0.37;92.45
79453;BME280;68899;52.116;5.404;2023-12-07T12:38:11;101814.94;;;0.40;92.55
79453;BME280;68899;52.116;5.404;2023-12-07T12:40:52;101807.16;;;0.41;92.94
79453;BME280;68899;52.116;5.404;2023-12-07T12:43:20;101806.28;;;0.42;92.81
79453;BME280;68899;52.116;5.404;2023-12-07T12:45:48;101803.69;;;0.45;92.04
79453;BME280;68899;52.116;5.404;2023-12-07T12:48:31;101791.63;;;0.44;92.20
79453;BME280;68899;52.116;5.404;2023-12-07T12:51:07;101775.19;;;0.48;92.48
79453;BME280;68899;52.116;5.404;2023-12-07T12:53:34;101781.22;;;0.50;93.18
79453;BME280;68899;52.116;5.404;2023-12-07T12:56:02;101780.38;;;0.53;93.10
79453;BME280;68899;52.116;5.404;2023-12-07T12:58:28;101763.94;;;0.57;92.45
79453;BME280;68899;52.116;5.404;2023-12-07T13:00:56;101752.72;;;0.61;92.80
79453;BME280;68899;52.116;5.404;2023-12-07T13:03:23;101749.22;;;0.61;93.15
79453;BME280;68899;52.116;5.404;2023-12-07T13:05:49;101752.72;;;0.61;92.27